Time;durP1;ratioP1;P1;durP2;ratioP2;P2;SDS_P1;SDS_P2;PMS_P1;PMS_P2;Temp;Humidity;BMP_temperature;BMP_pressure;BME280_temperature;BME280_humidity;BME280_pressure;Samples;Min_cycle;Max_cycle;Signal;HPM_P1;HPM_P2
2020/12/26 00:02:05;;;;;;;14.03;7.07;;;;;;;-147.27;100.00;65176.34;5013157;28;20075;-59
2020/12/26 00:04:31;;;;;;;11.77;5.90;;;;;;;-147.27;100.00;65176.34;5012432;28;20038;-59
2020/12/26 00:06:56;;;;;;;17.77;7.33;;;;;;;-147.27;100.00;65176.34;5011820;28;20034;-59
2020/12/26 00:09:22;;;;;;;13.83;7.70;;;;;;;-147.27;100.00;65176.34;5011662;28;20439;-60
2020/12/26 00:11:49;;;;;;;21.47;7.70;;;;;;;-147.27;100.00;65176.34;5012282;28;20038;-59
2020/12/26 00:14:14;;;;;;;19.80;8.85;;;;;;;-147.27;100.00;65176.34;5012892;28;20038;-59
2020/12/26 00:16:40;;;;;;;20.52;8.38;;;;;;;-147.27;100.00;65176.34;5012159;28;20052;-60
2020/12/26 00:19:05;;;;;;;24.97;8.73;;;;;;;-147.27;100.00;65176.34;5012639;28;20048;-60
2020/12/26 00:21:31;;;;;;;22.63;9.53;;;;;;;-147.27;100.00;65176.34;5010683;28;20041;-60
2020/12/26 00:23:56;;;;;;;19.90;10.30;;;;;;;-147.27;100.00;65176.34;5012464;28;20441;-62
2020/12/26 00:26:22;;;;;;;24.00;10.90;;;;;;;-147.27;100.00;65176.34;5012673;28;20068;-60
2020/12/26 00:28:47;;;;;;;20.83;10.43;;;;;;;-147.27;100.00;65176.34;5012227;28;20037;-60
2020/12/26 00:31:14;;;;;;;16.97;8.40;;;;;;;-147.27;100.00;65176.34;5011315;28;20129;-60
2020/12/26 00:33:40;;;;;;;;;;;;;;;-147.27;100.00;65176.34;5012424;28;20125;-59
2020/12/26 00:36:05;;;;;;;17.47;7.03;;;;;;;-147.27;100.00;65176.34;5012819;28;19917;-62
2020/12/26 00:38:31;;;;;;;18.47;8.27;;;;;;;-147.27;100.00;65176.34;5012161;28;20061;-58
2020/12/26 00:40:56;;;;;;;19.00;7.80;;;;;;;-147.27;100.00;65176.34;5011479;28;20390;-60
2020/12/26 00:43:22;;;;;;;14.47;6.40;;;;;;;-147.27;100.00;65176.34;5012575;28;20029;-60
2020/12/26 00:45:47;;;;;;;20.93;7.93;;;;;;;-147.27;100.00;65176.34;5010634;28;20038;-59
2020/12/26 00:48:13;;;;;;;18.27;7.57;;;;;;;-147.27;100.00;65176.34;5012773;28;20095;-59
2020/12/26 00:50:39;;;;;;;15.00;7.25;;;;;;;-147.27;100.00;65176.34;5010433;28;20042;-59
2020/12/26 00:53:04;;;;;;;24.40;8.02;;;;;;;-147.27;100.00;65176.34;5027524;28;20053;-60
2020/12/26 00:55:30;;;;;;;14.60;6.53;;;;;;;-147.27;100.00;65176.34;5010484;28;20096;-58
2020/12/26 00:57:56;;;;;;;15.85;6.93;;;;;;;-147.27;100.00;65176.34;5011165;28;20386;-58
2020/12/26 01:00:22;;;;;;;14.40;7.22;;;;;;;-147.27;100.00;65176.34;5011828;28;20422;-60
2020/12/26 01:02:57;;;;;;;15.75;6.20;;;;;;;-147.27;100.00;65176.34;5027427;28;20042;-59
2020/12/26 01:05:26;;;;;;;14.85;6.85;;;;;;;-147.27;100.00;65176.34;5027052;28;20038;-60
2020/12/26 01:07:51;;;;;;;12.93;6.27;;;;;;;-147.27;100.00;65176.34;5026445;28;20053;-59
2020/12/26 01:10:18;;;;;;;14.13;6.83;;;;;;;-147.27;100.00;65176.34;5010446;28;20072;-59
2020/12/26 01:12:43;;;;;;;22.65;7.15;;;;;;;-147.27;100.00;65176.34;5011456;28;20100;-59
2020/12/26 01:15:09;;;;;;;18.23;8.17;;;;;;;-147.27;100.00;65176.34;5011751;28;20042;-59
2020/12/26 01:17:34;;;;;;;19.60;7.77;;;;;;;-147.27;100.00;65176.34;5011439;28;20036;-60
2020/12/26 01:20:00;;;;;;;13.93;7.97;;;;;;;-147.27;100.00;65176.34;5011805;28;20042;-59
2020/12/26 01:22:25;;;;;;;15.63;7.47;;;;;;;-147.27;100.00;65176.34;5011837;28;20046;-60
2020/12/26 01:24:50;;;;;;;13.63;7.10;;;;;;;-147.27;100.00;65176.34;5009627;28;20040;-58
2020/12/26 01:27:16;;;;;;;18.37;7.03;;;;;;;-147.27;100.00;65176.34;5011560;28;20521;-57
2020/12/26 01:29:41;;;;;;;20.43;8.40;;;;;;;-147.27;100.00;65176.34;5010947;28;20500;-60
2020/12/26 01:32:07;;;;;;;13.17;7.50;;;;;;;-147.27;100.00;65176.34;5011783;28;20045;-60
2020/12/26 01:34:32;;;;;;;17.67;8.07;;;;;;;-147.27;100.00;65176.34;5011433;28;20092;-59
2020/12/26 01:36:58;;;;;;;21.45;7.55;;;;;;;-147.27;100.00;65176.34;5011310;28;20041;-59
2020/12/26 01:39:24;;;;;;;15.00;8.03;;;;;;;-147.27;100.00;65176.34;5011448;28;20042;-60
2020/12/26 01:41:55;;;;;;;25.33;8.67;;;;;;;-147.27;100.00;65176.34;5010669;28;20131;-60
2020/12/26 01:44:22;;;;;;;15.70;7.88;;;;;;;-147.27;100.00;65176.34;5011553;28;20110;-60
2020/12/26 01:46:49;;;;;;;15.10;8.10;;;;;;;-147.27;100.00;65176.34;5010760;28;20038;-59
2020/12/26 01:49:20;;;;;;;16.67;8.13;;;;;;;-147.27;100.00;65176.34;5026523;28;20037;-60
2020/12/26 01:51:46;;;;;;;19.48;8.45;;;;;;;-147.27;100.00;65176.34;5009369;28;20065;-60
2020/12/26 01:54:12;;;;;;;;;;;;;;;-147.27;100.00;65176.34;5012018;28;20129;-59
2020/12/26 01:56:41;;;;;;;17.17;6.87;;;;;;;-147.27;100.00;65176.34;5010766;28;20027;-59
2020/12/26 01:59:07;;;;;;;14.48;7.50;;;;;;;-147.27;100.00;65176.34;5011131;28;20064;-60
2020/12/26 02:01:41;;;;;;;17.52;7.72;;;;;;;-147.27;100.00;65176.34;5011498;28;20038;-59
2020/12/26 02:04:11;;;;;;;23.67;8.82;;;;;;;-147.27;100.00;65176.34;5011265;28;20442;-60
2020/12/26 02:06:42;;;;;;;19.08;8.85;;;;;;;-147.27;100.00;65176.34;5010883;28;20045;-59
2020/12/26 02:09:07;;;;;;;15.68;8.32;;;;;;;-147.27;100.00;65176.34;5010283;28;20056;-60
2020/12/26 02:11:33;;;;;;;20.87;9.10;;;;;;;-147.27;100.00;65176.34;5011523;28;20029;-60
2020/12/26 02:13:59;;;;;;;25.33;11.07;;;;;;;-147.27;100.00;65176.34;4993058;28;20040;-60
2020/12/26 02:16:25;;;;;;;24.33;8.77;;;;;;;-147.27;100.00;65176.34;5012290;28;20092;-59
2020/12/26 02:18:50;;;;;;;16.10;9.43;;;;;;;-147.27;100.00;65176.34;5014409;28;20045;-60
2020/12/26 02:21:17;;;;;;;18.67;9.23;;;;;;;-147.27;100.00;65176.34;5015157;28;20466;-60
2020/12/26 02:23:45;;;;;;;19.65;10.48;;;;;;;-147.27;100.00;65176.34;5014448;28;20113;-60
2020/12/26 02:26:11;;;;;;;18.85;10.00;;;;;;;-147.27;100.00;65176.34;5014663;28;20124;-60
2020/12/26 02:28:37;;;;;;;19.38;9.82;;;;;;;-147.27;100.00;65176.34;5015136;28;20041;-60
2020/12/26 02:31:04;;;;;;;20.27;10.02;;;;;;;-147.27;100.00;65176.34;5015002;28;20038;-59
2020/12/26 02:33:31;;;;;;;20.60;11.18;;;;;;;-147.27;100.00;65176.34;5014766;28;20097;-60
2020/12/26 02:35:57;;;;;;;20.40;11.13;;;;;;;-147.27;100.00;65176.34;5014295;28;20037;-59
2020/12/26 02:38:22;;;;;;;19.58;10.35;;;;;;;-147.27;100.00;65176.34;5014948;28;20045;-60
2020/12/26 02:40:49;;;;;;;21.67;9.77;;;;;;;-147.27;100.00;65176.34;5012747;28;20042;-60
2020/12/26 02:43:20;;;;;;;19.07;9.67;;;;;;;-147.27;100.00;65176.34;5014768;28;20069;-58
2020/12/26 02:45:46;;;;;;;21.95;10.25;;;;;;;-147.27;100.00;65176.34;5013896;28;20267;-60
2020/12/26 02:48:12;;;;;;;17.33;8.82;;;;;;;-147.27;100.00;65176.34;5014366;28;20077;-61
2020/12/26 02:50:37;;;;;;;16.07;9.13;;;;;;;-147.27;100.00;65176.34;5014323;28;20112;-59
2020/12/26 02:53:03;;;;;;;13.63;9.53;;;;;;;-147.27;100.00;65176.34;5013450;28;20144;-59
2020/12/26 02:55:28;;;;;;;15.23;8.77;;;;;;;-147.27;100.00;65176.34;5014218;28;20530;-59
2020/12/26 02:57:53;;;;;;;17.10;9.70;;;;;;;-147.27;100.00;65176.34;5013545;28;20045;-61
2020/12/26 03:00:19;;;;;;;15.53;8.20;;;;;;;-147.27;100.00;65176.34;5029040;28;20052;-60
2020/12/26 03:02:44;;;;;;;17.73;9.33;;;;;;;-147.27;100.00;65176.34;5011918;28;20038;-59
2020/12/26 03:05:10;;;;;;;15.63;9.00;;;;;;;-147.27;100.00;65176.34;5012515;28;20112;-59
2020/12/26 03:07:37;;;;;;;15.10;9.53;;;;;;;-147.27;100.00;65176.34;5014041;28;20158;-61
2020/12/26 03:10:03;;;;;;;16.77;8.80;;;;;;;-147.27;100.00;65176.34;5013330;28;20049;-60
2020/12/26 03:12:29;;;;;;;18.60;9.15;;;;;;;-147.27;100.00;65176.34;5014223;28;20034;-60
2020/12/26 03:14:54;;;;;;;15.03;7.80;;;;;;;-147.27;100.00;65176.34;5013787;28;20454;-60
2020/12/26 03:17:19;;;;;;;16.00;9.10;;;;;;;-147.27;100.00;65176.34;5013948;28;20439;-59
2020/12/26 03:19:45;;;;;;;20.30;8.07;;;;;;;-147.27;100.00;65176.34;5012880;28;20087;-60
2020/12/26 03:22:10;;;;;;;15.30;7.47;;;;;;;-147.27;100.00;65176.34;5013711;28;20060;-61
2020/12/26 03:24:36;;;;;;;16.20;6.37;;;;;;;-147.27;100.00;65176.34;5013606;28;20057;-60
2020/12/26 03:27:01;;;;;;;15.80;6.43;;;;;;;-147.27;100.00;65176.34;5012957;28;20066;-58
2020/12/26 03:29:27;;;;;;;10.50;6.60;;;;;;;-147.27;100.00;65176.34;5028539;28;20046;-59
2020/12/26 03:31:52;;;;;;;14.60;6.70;;;;;;;-147.27;100.00;65176.34;5012767;28;20144;-60
2020/12/26 03:34:18;;;;;;;13.10;6.13;;;;;;;-147.27;100.00;65176.34;5013286;28;20037;-59
2020/12/26 03:36:43;;;;;;;14.00;7.03;;;;;;;-147.27;100.00;65176.34;5013360;28;20497;-59
2020/12/26 03:39:09;;;;;;;13.93;7.32;;;;;;;-147.27;100.00;65176.34;5013230;28;20038;-59
2020/12/26 03:41:34;;;;;;;17.13;6.73;;;;;;;-147.27;100.00;65176.34;5013315;28;20137;-60
2020/12/26 03:44:00;;;;;;;16.25;7.22;;;;;;;-147.27;100.00;65176.34;5012615;28;20111;-59
2020/12/26 03:46:26;;;;;;;15.20;7.70;;;;;;;-147.27;100.00;65176.34;5013136;28;20034;-60
2020/12/26 03:48:51;;;;;;;10.33;5.33;;;;;;;-147.27;100.00;65176.34;5012455;28;20548;-58
2020/12/26 03:51:17;;;;;;;20.60;6.70;;;;;;;-147.27;100.00;65176.34;5013148;28;20072;-61
2020/12/26 03:53:42;;;;;;;9.27;4.63;;;;;;;-147.27;100.00;65176.34;5012126;28;20470;-59
2020/12/26 03:56:08;;;;;;;11.47;4.77;;;;;;;-147.27;100.00;65176.34;5012592;28;20073;-59
2020/12/26 03:58:33;;;;;;;18.33;5.37;;;;;;;-147.27;100.00;65176.34;5013046;28;20125;-60
2020/12/26 04:00:59;;;;;;;9.43;4.90;;;;;;;-147.27;100.00;65176.34;5012098;28;20065;-58
2020/12/26 04:03:24;;;;;;;7.67;4.00;;;;;;;-147.27;100.00;65176.34;5013051;28;20180;-60
2020/12/26 04:05:50;;;;;;;13.53;4.33;;;;;;;-147.27;100.00;65176.34;5012247;28;20053;-60
2020/12/26 04:08:15;;;;;;;13.27;4.67;;;;;;;-147.27;100.00;65176.34;5012872;28;20065;-59
2020/12/26 04:10:40;;;;;;;18.20;4.97;;;;;;;-147.27;100.00;65176.34;5011497;28;20470;-60
2020/12/26 04:13:06;;;;;;;13.00;4.77;;;;;;;-147.27;100.00;65176.34;5012002;28;20474;-61
2020/12/26 04:15:31;;;;;;;16.97;4.33;;;;;;;-147.27;100.00;65176.34;5012841;28;20380;-61
2020/12/26 04:17:57;;;;;;;11.53;4.53;;;;;;;-147.27;100.00;65176.34;5010519;28;20130;-60
2020/12/26 04:20:22;;;;;;;6.43;3.93;;;;;;;-147.27;100.00;65176.34;5011405;28;20040;-60
2020/12/26 04:22:48;;;;;;;12.40;3.50;;;;;;;-147.27;100.00;65176.34;5012534;28;20036;-60
2020/12/26 04:25:14;;;;;;;12.50;3.80;;;;;;;-147.27;100.00;65176.34;5012483;28;20053;-60
2020/12/26 04:27:39;;;;;;;8.83;3.70;;;;;;;-147.27;100.00;65176.34;5012341;28;20509;-62
2020/12/26 04:30:05;;;;;;;11.83;4.70;;;;;;;-147.27;100.00;65176.34;5011330;28;20125;-60
2020/12/26 04:32:31;;;;;;;5.60;2.83;;;;;;;-147.27;100.00;65176.34;5011078;28;20040;-60
2020/12/26 04:34:56;;;;;;;6.93;3.20;;;;;;;-147.27;100.00;65176.34;5011459;28;20502;-60
2020/12/26 04:37:22;;;;;;;13.00;3.70;;;;;;;-147.27;100.00;65176.34;5012079;28;20394;-60
2020/12/26 04:39:48;;;;;;;12.10;4.03;;;;;;;-147.27;100.00;65176.34;5011707;28;20044;-61
2020/12/26 04:42:13;;;;;;;6.63;3.30;;;;;;;-147.27;100.00;65176.34;5011027;28;20173;-60
2020/12/26 04:44:39;;;;;;;8.77;3.60;;;;;;;-147.27;100.00;65176.34;5010829;28;20074;-62
2020/12/26 04:47:12;;;;;;;12.02;3.45;;;;;;;-147.27;100.00;65176.34;5011193;28;20526;-59
2020/12/26 04:49:39;;;;;;;6.90;3.80;;;;;;;-147.27;100.00;65176.34;5012044;28;20049;-60
2020/12/26 04:52:08;;;;;;;9.73;4.20;;;;;;;-147.27;100.00;65176.34;5011189;28;20087;-60
2020/12/26 04:54:42;;;;;;;10.43;3.83;;;;;;;-147.27;100.00;65176.34;5011739;28;20033;-60
2020/12/26 04:57:09;;;;;;;9.85;4.07;;;;;;;-147.27;100.00;65176.34;5011130;28;20061;-60
2020/12/26 04:59:34;;;;;;;11.95;4.28;;;;;;;-147.27;100.00;65176.34;5011493;28;20042;-60
2020/12/26 05:02:01;;;;;;;11.30;4.37;;;;;;;-147.27;100.00;65176.34;5009376;28;20056;-59
2020/12/26 05:04:26;;;;;;;11.20;4.00;;;;;;;-147.27;100.00;65176.34;5011594;28;20041;-60
2020/12/26 05:06:53;;;;;;;7.80;3.63;;;;;;;-147.27;100.00;65176.34;5011481;28;20034;-60
2020/12/26 05:09:21;;;;;;;6.38;3.60;;;;;;;-147.27;100.00;65176.34;5011511;28;20104;-59
2020/12/26 05:11:55;;;;;;;9.98;4.25;;;;;;;-147.27;100.00;65176.34;5011573;28;20060;-59
2020/12/26 05:14:22;;;;;;;13.52;4.15;;;;;;;-147.27;100.00;65176.34;5011131;28;20486;-60
2020/12/26 05:16:48;;;;;;;;;;;;;;;-147.27;100.00;65176.34;5010570;28;20034;-60
2020/12/26 05:19:13;;;;;;;9.57;4.10;;;;;;;-147.27;100.00;65176.34;5010872;28;19928;-60
2020/12/26 05:21:39;;;;;;;10.48;4.05;;;;;;;-147.27;100.00;65176.34;5014805;28;20482;-60
2020/12/26 05:24:07;;;;;;;11.13;4.78;;;;;;;-147.27;100.00;65176.34;5019327;28;20033;-59
2020/12/26 05:26:44;;;;;;;9.90;4.65;;;;;;;-147.27;100.00;65176.34;5020389;28;20038;-60
2020/12/26 05:29:11;;;;;;;13.57;5.22;;;;;;;-147.27;100.00;65176.34;5019743;28;20160;-59
2020/12/26 05:31:44;;;;;;;13.75;4.78;;;;;;;-147.27;100.00;65176.34;5020654;28;20033;-59
2020/12/26 05:34:10;;;;;;;12.13;5.00;;;;;;;-147.27;100.00;65176.34;5017630;28;20083;-64
2020/12/26 05:36:36;;;;;;;10.00;5.35;;;;;;;-147.27;100.00;65176.34;5019942;28;20026;-59
2020/12/26 05:39:02;;;;;;;9.10;5.38;;;;;;;-147.27;100.00;65176.34;5035380;28;20034;-58
2020/12/26 05:41:29;;;;;;;12.73;6.00;;;;;;;-147.27;100.00;65176.34;5016185;28;20045;-59
2020/12/26 05:43:56;;;;;;;13.75;5.93;;;;;;;-147.27;100.00;65176.34;5010703;28;20046;-56
2020/12/26 05:46:21;;;;;;;12.15;6.38;;;;;;;-147.27;100.00;65176.34;5010663;28;20136;-60
2020/12/26 05:48:47;;;;;;;13.47;6.07;;;;;;;-147.27;100.00;65176.34;5009728;28;20482;-59
2020/12/26 05:51:28;;;;;;;18.97;6.33;;;;;;;-147.27;100.00;65176.34;5011875;28;20017;-60
2020/12/26 05:53:57;;;;;;;18.35;6.78;;;;;;;-147.27;100.00;65176.34;5015196;28;20192;-60
2020/12/26 05:56:23;;;;;;;13.88;5.85;;;;;;;-147.27;100.00;65176.34;5013388;28;20041;-58
2020/12/26 05:58:49;;;;;;;10.48;6.50;;;;;;;-147.27;100.00;65176.34;5014794;28;20458;-58
2020/12/26 06:01:21;;;;;;;18.20;7.22;;;;;;;-147.27;100.00;65176.34;5014311;28;20087;-59
2020/12/26 06:03:47;;;;;;;17.55;7.80;;;;;;;-147.27;100.00;65176.34;5014904;28;20076;-59
2020/12/26 06:06:14;;;;;;;16.27;8.20;;;;;;;-147.27;100.00;65176.34;5029390;28;20069;-59
2020/12/26 06:08:40;;;;;;;17.73;7.80;;;;;;;-147.27;100.00;65176.34;5014612;28;20073;-61
2020/12/26 06:11:06;;;;;;;10.45;6.30;;;;;;;-147.27;100.00;65176.34;5013918;28;20169;-59
2020/12/26 06:13:36;;;;;;;15.63;7.55;;;;;;;-147.27;100.00;65176.34;5014550;28;20491;-60
2020/12/26 06:16:20;;;;;;;15.05;8.93;;;;;;;-147.27;100.00;65176.34;5014027;28;20034;-60
2020/12/26 06:18:51;;;;;;;16.33;8.30;;;;;;;-147.27;100.00;65176.34;5014683;28;20045;-60
2020/12/26 06:21:17;;;;;;;16.55;8.20;;;;;;;-147.27;100.00;65176.34;5012702;28;20104;-60
2020/12/26 06:23:44;;;;;;;25.05;9.70;;;;;;;-147.27;100.00;65176.34;5014689;28;20129;-59
2020/12/26 06:26:09;;;;;;;18.25;8.75;;;;;;;-147.27;100.00;65176.34;5028937;28;20092;-60
2020/12/26 06:28:35;;;;;;;22.43;8.43;;;;;;;-147.27;100.00;65176.34;5014460;28;20382;-59
2020/12/26 06:31:05;;;;;;;21.88;9.68;;;;;;;-147.27;100.00;65176.34;5013898;28;20038;-59
2020/12/26 06:33:40;;;;;;;16.02;9.23;;;;;;;-147.27;100.00;65176.34;5014242;28;20513;-59
2020/12/26 06:36:07;;;;;;;22.50;9.35;;;;;;;-147.27;100.00;65176.34;5013500;28;20084;-58
2020/12/26 06:38:34;;;;;;;20.20;10.07;;;;;;;-147.27;100.00;65176.34;5014613;28;20038;-59
2020/12/26 06:41:20;;;;;;;17.95;9.80;;;;;;;-147.27;100.00;65176.34;5013967;28;20041;-57
2020/12/26 06:43:46;;;;;;;21.85;9.60;;;;;;;-147.27;100.00;65176.34;5028874;28;20064;-58
2020/12/26 06:46:14;;;;;;;21.53;10.67;;;;;;;-147.27;100.00;65176.34;5013594;28;20038;-57
2020/12/26 06:48:44;;;;;;;17.38;9.60;;;;;;;-147.27;100.00;65176.34;5014470;28;20792;-60
2020/12/26 06:51:29;;;;;;;24.60;11.68;;;;;;;-147.27;100.00;65176.34;5014115;28;20430;-59
2020/12/26 06:54:01;;;;;;;22.33;11.05;;;;;;;-147.27;100.00;65176.34;5029430;28;20060;-59
2020/12/26 06:56:36;;;;;;;23.60;10.80;;;;;;;-147.27;100.00;65176.34;5013266;28;20064;-60
2020/12/26 06:59:03;;;;;;;20.98;10.38;;;;;;;-147.27;100.00;65176.34;5013407;28;20038;-54
2020/12/26 07:01:29;;;;;;;21.65;9.35;;;;;;;-147.27;100.00;65176.34;5013860;28;20034;-59
2020/12/26 07:04:08;;;;;;;17.77;10.93;;;;;;;-147.27;100.00;65176.34;5029283;28;20044;-60
2020/12/26 07:06:41;;;;;;;19.88;11.50;;;;;;;-147.27;100.00;65176.34;4996393;28;20038;-61
2020/12/26 07:09:08;;;;;;;27.52;11.75;;;;;;;-147.27;100.00;65176.34;5013459;28;20117;-60
2020/12/26 07:11:53;;;;;;;16.25;9.45;;;;;;;-147.27;100.00;65176.34;5014069;28;20045;-60
2020/12/26 07:14:32;;;;;;;22.98;11.27;;;;;;;-147.27;100.00;65176.34;5012950;28;20050;-60
2020/12/26 07:16:59;;;;;;;26.08;11.38;;;;;;;-147.27;100.00;65176.34;5014295;28;20402;-60
2020/12/26 07:19:25;;;;;;;21.02;10.77;;;;;;;-147.27;100.00;65176.34;5013506;28;20106;-59
2020/12/26 07:21:56;;;;;;;18.03;10.77;;;;;;;-147.27;100.00;65176.34;5014005;28;20050;-60
2020/12/26 07:24:34;;;;;;;19.30;11.02;;;;;;;-147.27;100.00;65176.34;5028540;28;20420;-59
2020/12/26 07:27:12;;;;;;;21.92;10.85;;;;;;;-147.27;100.00;65176.34;5014204;28;20114;-60
2020/12/26 07:29:56;;;;;;;20.20;10.75;;;;;;;-147.27;100.00;65176.34;5016181;28;20521;-60
2020/12/26 07:32:37;;;;;;;20.42;10.10;;;;;;;-147.27;100.00;65176.34;5016909;28;20041;-58
2020/12/26 07:35:04;;;;;;;24.85;11.32;;;;;;;-147.27;100.00;65176.34;5018131;28;20060;-59
2020/12/26 07:37:30;;;;;;;20.40;9.63;;;;;;;-147.27;100.00;65176.34;5031472;28;20091;-59
2020/12/26 07:39:55;;;;;;;17.52;9.25;;;;;;;-147.27;100.00;65176.34;5024854;28;20029;-60
2020/12/26 07:42:25;;;;;;;21.50;10.27;;;;;;;-147.27;100.00;65176.34;5021478;28;20030;-59
2020/12/26 07:44:51;;;;;;;20.27;10.77;;;;;;;-147.27;100.00;65176.34;5022177;28;20041;-60
2020/12/26 07:47:16;;;;;;;25.05;9.75;;;;;;;-147.27;100.00;65176.34;5038113;28;20037;-58
2020/12/26 07:49:42;;;;;;;15.27;8.83;;;;;;;-147.27;100.00;65176.34;5037714;28;20041;-60
2020/12/26 07:52:09;;;;;;;29.33;10.33;;;;;;;-147.27;100.00;65176.34;5021709;28;20029;-59
2020/12/26 07:54:35;;;;;;;15.85;8.90;;;;;;;-147.27;100.00;65176.34;5022491;28;20056;-59
2020/12/26 07:57:01;;;;;;;22.70;8.55;;;;;;;-147.27;100.00;65176.34;5022060;28;20176;-60
2020/12/26 07:59:27;;;;;;;23.85;10.20;;;;;;;-147.27;100.00;65176.34;5021826;28;20213;-60
2020/12/26 08:01:55;;;;;;;22.55;9.45;;;;;;;-147.27;100.00;65176.34;5023296;28;20482;-60
2020/12/26 08:04:20;;;;;;;20.67;10.85;;;;;;;-147.27;100.00;65176.34;5023597;28;20041;-60
2020/12/26 08:06:49;;;;;;;20.40;10.20;;;;;;;-147.27;100.00;65176.34;5018247;28;20359;-57
2020/12/26 08:09:16;;;;;;;22.17;8.65;;;;;;;-147.27;100.00;65176.34;5018647;28;20398;-60
2020/12/26 08:11:43;;;;;;;18.92;8.55;;;;;;;-147.27;100.00;65176.34;5017472;28;20463;-59
2020/12/26 08:14:10;;;;;;;15.67;8.63;;;;;;;-147.27;100.00;65176.34;5021925;28;20095;-58
2020/12/26 08:16:37;;;;;;;19.42;9.07;;;;;;;-147.27;100.00;65176.34;5022686;28;20494;-60
2020/12/26 08:19:04;;;;;;;22.88;10.10;;;;;;;-147.27;100.00;65176.34;5023203;28;20029;-60
2020/12/26 08:21:33;;;;;;;21.95;8.98;;;;;;;-147.27;100.00;65176.34;5036594;28;20049;-59
2020/12/26 08:24:01;;;;;;;19.85;9.57;;;;;;;-147.27;100.00;65176.34;5021517;28;20042;-58
2020/12/26 08:26:29;;;;;;;16.90;8.35;;;;;;;-147.27;100.00;65176.34;5021231;28;20040;-59
2020/12/26 08:28:58;;;;;;;21.63;8.30;;;;;;;-147.27;100.00;65176.34;5024001;28;20040;-60
2020/12/26 08:31:24;;;;;;;17.13;9.88;;;;;;;-147.27;100.00;65176.34;5023931;28;20038;-59
2020/12/26 08:34:06;;;;;;;20.35;8.52;;;;;;;-147.27;100.00;65176.34;5022152;28;20030;-59
2020/12/26 08:36:37;;;;;;;14.82;7.65;;;;;;;-147.27;100.00;65176.34;5022280;28;20056;-60
2020/12/26 08:39:04;;;;;;;15.63;8.35;;;;;;;-147.27;100.00;65176.34;5021312;28;20172;-58
2020/12/26 08:41:32;;;;;;;20.65;8.57;;;;;;;-147.27;100.00;65176.34;5020475;28;20439;-60
2020/12/26 08:43:58;;;;;;;14.95;7.75;;;;;;;-147.27;100.00;65176.34;5019108;28;20482;-60
2020/12/26 08:46:25;;;;;;;16.15;8.27;;;;;;;-147.27;100.00;65176.34;5021776;28;20025;-61
2020/12/26 08:48:57;;;;;;;15.98;7.65;;;;;;;-147.27;100.00;65176.34;5021450;28;20038;-60
2020/12/26 08:51:27;;;;;;;15.10;7.95;;;;;;;-147.27;100.00;65176.34;5018105;28;20478;-58
2020/12/26 08:53:56;;;;;;;15.05;6.82;;;;;;;-147.27;100.00;65176.34;5021077;28;20445;-57
2020/12/26 08:56:35;;;;;;;20.13;7.57;;;;;;;-147.27;100.00;65176.34;5020056;28;20095;-59
2020/12/26 08:59:02;;;;;;;14.05;6.40;;;;;;;-147.27;100.00;65176.34;5022058;28;20036;-61
2020/12/26 09:01:27;;;;;;;12.20;6.95;;;;;;;-147.27;100.00;65176.34;5020290;28;20046;-59
2020/12/26 09:03:53;;;;;;;16.80;7.23;;;;;;;-147.27;100.00;65176.34;5019793;28;20079;-58
2020/12/26 09:06:39;;;;;;;16.63;7.70;;;;;;;-147.27;100.00;65176.34;5021638;28;20681;-60
2020/12/26 09:09:18;;;;;;;12.40;7.57;;;;;;;-147.27;100.00;65176.34;5021219;28;20033;-58
2020/12/26 09:11:45;;;;;;;15.65;5.90;;;;;;;-147.27;100.00;65176.34;5020740;28;20461;-60
2020/12/26 09:14:21;;;;;;;12.68;6.03;;;;;;;-147.27;100.00;65176.34;5020942;28;20038;-60
2020/12/26 09:16:55;;;;;;;11.38;5.80;;;;;;;-147.27;100.00;65176.34;5011839;28;20147;-60
2020/12/26 09:19:21;;;;;;;13.52;5.43;;;;;;;-147.27;100.00;65176.34;5010956;28;20489;-59
2020/12/26 09:21:46;;;;;;;14.53;6.77;;;;;;;-147.27;100.00;65176.34;5010325;28;20084;-60
2020/12/26 09:24:17;;;;;;;11.87;4.40;;;;;;;-147.27;100.00;65176.34;5011280;28;20327;-60
2020/12/26 09:26:43;;;;;;;11.25;4.60;;;;;;;-147.27;100.00;65176.34;5011347;28;20091;-59
2020/12/26 09:29:09;;;;;;;10.98;4.97;;;;;;;-147.27;100.00;65176.34;5011608;28;20552;-60
2020/12/26 09:31:36;;;;;;;11.45;5.07;;;;;;;-147.27;100.00;65176.34;5010218;28;20490;-60
2020/12/26 09:34:17;;;;;;;14.55;4.47;;;;;;;-147.27;100.00;65176.34;5011615;28;20034;-59
2020/12/26 09:36:43;;;;;;;23.35;6.63;;;;;;;-147.27;100.00;65176.34;5011162;28;20034;-59
2020/12/26 09:39:09;;;;;;;8.55;4.70;;;;;;;-147.27;100.00;65176.34;5026361;28;20038;-59
2020/12/26 09:41:46;;;;;;;14.43;4.60;;;;;;;-147.27;100.00;65176.34;5025742;28;20068;-60
2020/12/26 09:44:12;;;;;;;;;;;;;;;-147.27;100.00;65176.34;5010821;28;20042;-58
2020/12/26 09:46:39;;;;;;;9.53;3.60;;;;;;;-147.27;100.00;65176.34;5010099;28;19919;-59
2020/12/26 09:49:04;;;;;;;;;;;;;;;-147.27;100.00;65176.34;5011529;28;20109;-59
2020/12/26 09:51:30;;;;;;;10.27;4.50;;;;;;;-147.27;100.00;65176.34;5010774;28;19924;-59
2020/12/26 09:53:55;;;;;;;9.23;4.35;;;;;;;-147.27;100.00;65176.34;5026444;28;20121;-61
2020/12/26 09:56:21;;;;;;;8.07;3.80;;;;;;;-147.27;100.00;65176.34;5009388;28;20070;-59
2020/12/26 09:58:48;;;;;;;23.73;3.93;;;;;;;-147.27;100.00;65176.34;5011646;28;20397;-59
2020/12/26 10:01:15;;;;;;;13.00;3.70;;;;;;;-147.27;100.00;65176.34;5010688;28;20470;-60
2020/12/26 10:03:41;;;;;;;10.95;4.43;;;;;;;-147.27;100.00;65176.34;5009684;28;20469;-60
2020/12/26 10:06:15;;;;;;;9.52;3.70;;;;;;;-147.27;100.00;65176.34;5010803;28;20034;-60
2020/12/26 10:08:44;;;;;;;13.15;5.00;;;;;;;-147.27;100.00;65176.34;5020157;28;20103;-59
2020/12/26 10:11:14;;;;;;;8.05;4.03;;;;;;;-147.27;100.00;65176.34;5027367;28;20042;-58
2020/12/26 10:13:40;;;;;;;12.23;4.05;;;;;;;-147.27;100.00;65176.34;5029093;28;20041;-60
2020/12/26 10:16:07;;;;;;;9.13;3.67;;;;;;;-147.27;100.00;65176.34;5030872;28;20045;-60
2020/12/26 10:18:33;;;;;;;9.85;3.80;;;;;;;-147.27;100.00;65176.34;5045001;28;20042;-60
2020/12/26 10:20:59;;;;;;;8.93;3.88;;;;;;;-147.27;100.00;65176.34;5030823;28;20064;-60
2020/12/26 10:23:24;;;;;;;9.43;3.70;;;;;;;-147.27;100.00;65176.34;5030159;28;20045;-60
2020/12/26 10:25:50;;;;;;;8.87;3.40;;;;;;;-147.27;100.00;65176.34;5029543;28;20512;-59
2020/12/26 10:28:16;;;;;;;12.70;3.78;;;;;;;-147.27;100.00;65176.34;5030582;28;20045;-58
2020/12/26 10:30:42;;;;;;;9.90;3.55;;;;;;;-147.27;100.00;65176.34;5028689;28;20046;-59
2020/12/26 10:33:08;;;;;;;5.70;3.58;;;;;;;-147.27;100.00;65176.34;5028768;28;20038;-59
2020/12/26 10:35:33;;;;;;;10.93;3.53;;;;;;;-147.27;100.00;65176.34;5030061;28;20037;-60
2020/12/26 10:37:59;;;;;;;12.53;4.53;;;;;;;-147.27;100.00;65176.34;5033155;28;20037;-60
2020/12/26 10:40:24;;;;;;;17.17;4.63;;;;;;;-147.27;100.00;65176.34;5048834;28;20040;-59
2020/12/26 10:42:50;;;;;;;8.47;4.50;;;;;;;-147.27;100.00;65176.34;5034118;28;20034;-59
2020/12/26 10:45:15;;;;;;;8.33;3.60;;;;;;;-147.27;100.00;65176.34;5032694;28;20470;-58
2020/12/26 10:47:40;;;;;;;10.07;3.17;;;;;;;-147.27;100.00;65176.34;5032250;28;20472;-60
2020/12/26 10:50:06;;;;;;;9.03;3.10;;;;;;;-147.27;100.00;65176.34;5033752;28;20068;-60
2020/12/26 10:52:32;;;;;;;15.57;4.37;;;;;;;-147.27;100.00;65176.34;5033183;28;20038;-58
2020/12/26 10:54:58;;;;;;;8.25;3.35;;;;;;;-147.27;100.00;65176.34;5032610;28;20030;-59
2020/12/26 10:57:24;;;;;;;7.43;4.20;;;;;;;-147.27;100.00;65176.34;5033331;28;20037;-58
2020/12/26 10:59:49;;;;;;;8.50;3.10;;;;;;;-147.27;100.00;65176.34;5031981;28;20481;-60
2020/12/26 11:02:15;;;;;;;7.17;3.47;;;;;;;-147.27;100.00;65176.34;5033287;28;20041;-60
2020/12/26 11:04:40;;;;;;;6.10;2.77;;;;;;;-147.27;100.00;65176.34;5033174;28;20124;-58